Time;durP1;ratioP1;P1;durP2;ratioP2;P2;SDS_P1;SDS_P2;PMS_P1;PMS_P2;Temp;Humidity;BMP_temperature;BMP_pressure;BME280_temperature;BME280_humidity;BME280_pressure;Samples;Min_cycle;Max_cycle;Signal;HPM_P1;HPM_P2
2022/03/16 00:00:09;;;;;;;27.48;15.55;;;1.00;99.90;;;;;;5013772;28;20564;-74
2022/03/16 00:02:43;;;;;;;36.63;16.50;;;0.90;99.90;;;;;;5015999;28;20045;-75
2022/03/16 00:05:10;;;;;;;36.45;18.10;;;0.80;99.90;;;;;;4998530;28;20195;-73
2022/03/16 00:07:37;;;;;;;32.90;17.13;;;0.70;99.90;;;;;;4996472;28;20128;-73
2022/03/16 00:10:07;;;;;;;29.70;16.00;;;0.80;99.90;;;;;;5019450;28;20092;-73
2022/03/16 00:12:39;;;;;;;33.00;15.70;;;0.80;99.90;;;;;;4982698;28;20061;-75
2022/03/16 00:15:06;;;;;;;34.53;16.77;;;0.80;99.90;;;;;;5014596;28;20076;-73
2022/03/16 00:17:33;;;;;;;35.00;16.52;;;0.90;99.90;;;;;;5019910;28;20049;-75
2022/03/16 00:20:01;;;;;;;34.20;15.63;;;0.80;99.90;;;;;;5001656;28;20053;-74
2022/03/16 00:22:27;;;;;;;30.15;15.15;;;0.70;99.90;;;;;;5002202;28;20491;-74
2022/03/16 00:24:54;;;;;;;40.58;17.50;;;0.80;99.90;;;;;;5001945;28;20119;-73
2022/03/16 00:27:21;;;;;;;34.22;16.00;;;0.90;99.90;;;;;;5001310;28;20197;-74
2022/03/16 00:29:48;;;;;;;30.83;15.90;;;0.90;99.90;;;;;;5014590;28;20523;-74
2022/03/16 00:32:15;;;;;;;30.05;11.93;;;0.80;99.90;;;;;;4998152;28;20045;-74
2022/03/16 00:34:42;;;;;;;28.80;12.90;;;0.80;99.90;;;;;;5013239;28;20115;-73
2022/03/16 00:37:09;;;;;;;29.95;13.57;;;0.90;99.90;;;;;;4997605;28;20339;-75
2022/03/16 00:39:37;;;;;;;30.13;12.77;;;0.70;99.90;;;;;;5001587;28;20049;-75
2022/03/16 00:42:04;;;;;;;23.50;12.02;;;0.70;99.90;;;;;;5001884;28;20072;-73
2022/03/16 00:44:35;;;;;;;33.53;12.20;;;0.60;99.90;;;;;;5001218;28;20056;-74
2022/03/16 00:47:03;;;;;;;36.88;13.27;;;0.50;99.90;;;;;;4984872;28;20330;-73
2022/03/16 00:49:30;;;;;;;25.70;13.60;;;0.50;99.90;;;;;;5016931;28;20119;-74
2022/03/16 00:51:58;;;;;;;25.42;13.35;;;0.40;99.90;;;;;;5001489;28;20095;-74
2022/03/16 00:54:25;;;;;;;22.80;13.32;;;0.30;99.90;;;;;;5000369;28;20085;-74
2022/03/16 00:56:52;;;;;;;25.65;14.02;;;0.30;99.90;;;;;;4984674;28;20144;-74
2022/03/16 00:59:19;;;;;;;28.52;13.57;;;0.40;99.90;;;;;;5000976;28;20275;-73
2022/03/16 01:01:46;;;;;;;28.55;13.85;;;0.40;99.90;;;;;;4991946;28;20049;-73
2022/03/16 01:04:13;;;;;;;28.25;12.50;;;0.40;99.90;;;;;;4997372;28;20639;-74
2022/03/16 01:06:40;;;;;;;28.17;12.98;;;0.30;99.90;;;;;;4989730;28;20610;-74
2022/03/16 01:09:06;;;;;;;24.83;13.13;;;0.20;99.90;;;;;;4984553;28;20061;-74
2022/03/16 01:11:33;;;;;;;25.25;12.65;;;0.10;99.90;;;;;;4984425;28;20046;-74
2022/03/16 01:14:00;;;;;;;25.42;12.65;;;0.10;99.90;;;;;;5019020;28;20061;-75
2022/03/16 01:16:27;;;;;;;28.52;13.13;;;0.20;99.90;;;;;;5001031;28;20048;-74
2022/03/16 01:18:54;;;;;;;31.75;14.35;;;0.30;99.90;;;;;;5015646;28;20422;-75
2022/03/16 01:21:21;;;;;;;25.75;13.05;;;0.20;99.90;;;;;;4983820;28;20073;-75
2022/03/16 01:23:48;;;;;;;25.90;11.95;;;0.10;99.90;;;;;;5001480;28;20191;-74
2022/03/16 01:26:17;;;;;;;24.33;11.73;;;0.10;99.90;;;;;;5018817;28;20474;-74
2022/03/16 01:28:44;;;;;;;25.15;12.40;;;0.10;99.90;;;;;;5002314;28;20054;-74
2022/03/16 01:31:11;;;;;;;28.40;11.00;;;0.20;99.90;;;;;;5014637;23;20491;-73
2022/03/16 01:33:38;;;;;;;19.80;10.07;;;0.30;99.90;;;;;;5040996;28;20380;-73
2022/03/16 01:36:05;;;;;;;21.02;10.95;;;0.30;99.90;;;;;;5017118;28;20395;-73
2022/03/16 01:38:32;;;;;;;23.92;12.23;;;0.20;99.90;;;;;;5041665;28;20044;-73
2022/03/16 01:40:58;;;;;;;21.15;10.43;;;0.10;99.90;;;;;;5044610;28;20067;-73
2022/03/16 01:43:25;;;;;;;22.50;11.00;;;0.00;99.90;;;;;;5079836;28;20450;-73
2022/03/16 01:45:52;;;;;;;25.50;12.13;;;0.00;99.90;;;;;;5060984;28;20060;-73
2022/03/16 01:48:20;;;;;;;27.63;11.70;;;0.00;99.90;;;;;;5078707;28;20491;-73
2022/03/16 01:50:47;;;;;;;24.42;11.20;;;-0.10;99.90;;;;;;5060327;28;20572;-73
2022/03/16 01:53:16;;;;;;;27.08;10.50;;;0.00;99.90;;;;;;5078377;28;20068;-74
2022/03/16 01:55:43;;;;;;;24.83;11.35;;;0.00;99.90;;;;;;5060118;28;20430;-73
2022/03/16 01:58:10;;;;;;;30.95;11.30;;;0.10;99.90;;;;;;5064107;28;20052;-73
2022/03/16 02:00:39;;;;;;;30.80;10.40;;;0.20;99.90;;;;;;5058279;28;20271;-74
2022/03/16 02:03:09;;;;;;;28.20;11.00;;;0.00;99.90;;;;;;5058253;28;20286;-73
2022/03/16 02:05:37;;;;;;;23.92;11.48;;;-0.10;99.90;;;;;;5057093;28;20048;-73
2022/03/16 02:08:05;;;;;;;17.85;9.68;;;-0.20;99.90;;;;;;5067939;28;20076;-73
2022/03/16 02:10:32;;;;;;;24.65;12.23;;;-0.30;99.90;;;;;;5077386;28;20040;-73
2022/03/16 02:12:59;;;;;;;33.63;12.40;;;-0.30;99.90;;;;;;5083722;28;20450;-73
2022/03/16 02:15:26;;;;;;;26.92;12.38;;;-0.20;99.90;;;;;;5082954;28;20052;-75
2022/03/16 02:17:55;;;;;;;23.50;10.73;;;-0.30;99.90;;;;;;5083210;28;20131;-73
2022/03/16 02:20:25;;;;;;;29.38;12.25;;;-0.40;99.90;;;;;;5063629;28;20052;-73
2022/03/16 02:22:59;;;;;;;25.13;12.10;;;-0.40;99.90;;;;;;5082791;28;20513;-73
2022/03/16 02:25:27;;;;;;;20.60;11.55;;;-0.30;99.90;;;;;;5063282;28;20044;-73
2022/03/16 02:27:54;;;;;;;30.45;12.85;;;-0.40;99.90;;;;;;5081433;28;20055;-73
2022/03/16 02:30:23;;;;;;;28.52;13.10;;;-0.50;99.90;;;;;;5060809;28;20040;-73
2022/03/16 02:32:50;;;;;;;32.33;13.32;;;-0.40;99.90;;;;;;5047056;28;20040;-73
2022/03/16 02:35:17;;;;;;;37.35;15.27;;;-0.40;99.90;;;;;;5075282;28;20056;-73
2022/03/16 02:37:44;;;;;;;34.97;14.63;;;-0.20;99.90;;;;;;5076386;28;20056;-73
2022/03/16 02:40:16;;;;;;;44.53;14.68;;;-0.30;99.90;;;;;;5082155;28;20122;-73
2022/03/16 02:42:43;;;;;;;47.80;17.67;;;-0.20;99.90;;;;;;5082283;28;20048;-73
2022/03/16 02:45:10;;;;;;;64.90;20.88;;;-0.10;99.90;;;;;;5081436;28;20682;-73
2022/03/16 02:47:39;;;;;;;69.63;21.15;;;0.00;99.90;;;;;;5064464;28;20456;-72
2022/03/16 02:50:08;;;;;;;72.90;23.92;;;0.00;99.90;;;;;;5062935;28;20044;-73
2022/03/16 02:52:35;;;;;;;78.25;24.08;;;0.20;99.90;;;;;;5063773;28;20623;-73
2022/03/16 02:55:02;;;;;;;60.97;20.75;;;0.00;99.90;;;;;;5062471;28;20048;-73
2022/03/16 02:57:29;;;;;;;47.42;17.42;;;-0.10;99.90;;;;;;5064079;28;20040;-73
2022/03/16 02:59:55;;;;;;;38.47;14.38;;;-0.20;99.90;;;;;;5061386;28;20210;-73
2022/03/16 03:02:22;;;;;;;37.78;14.20;;;-0.20;99.90;;;;;;5055953;28;20032;-74
2022/03/16 03:04:49;;;;;;;41.35;14.10;;;-0.30;99.90;;;;;;5056616;28;20048;-73
2022/03/16 03:07:16;;;;;;;35.05;14.88;;;-0.30;99.90;;;;;;5068038;28;20098;-73
2022/03/16 03:09:43;;;;;;;43.92;17.48;;;-0.40;99.90;;;;;;5064686;28;20036;-73
2022/03/16 03:12:10;;;;;;;53.88;19.95;;;-0.30;99.90;;;;;;5081426;28;20505;-73
2022/03/16 03:14:37;;;;;;;58.50;20.30;;;-0.30;99.90;;;;;;5081247;28;20051;-73
2022/03/16 03:17:04;;;;;;;49.97;18.63;;;-0.20;99.90;;;;;;5062535;28;20135;-74
2022/03/16 03:19:31;;;;;;;55.35;20.00;;;0.00;99.90;;;;;;5056795;28;20494;-73
2022/03/16 03:21:58;;;;;;;44.33;19.23;;;-0.10;99.90;;;;;;5081310;28;20048;-73
2022/03/16 03:24:25;;;;;;;59.00;19.25;;;-0.20;99.90;;;;;;5063732;28;20063;-74
2022/03/16 03:26:53;;;;;;;73.32;23.02;;;-0.30;99.90;;;;;;5062489;28;20044;-73
2022/03/16 03:29:19;;;;;;;72.53;25.08;;;-0.20;99.90;;;;;;5058762;28;20485;-73
2022/03/16 03:31:46;;;;;;;63.83;24.92;;;-0.10;99.90;;;;;;5053472;28;20040;-73
2022/03/16 03:34:13;;;;;;;75.03;25.38;;;-0.20;99.90;;;;;;5040833;28;20607;-73
2022/03/16 03:36:40;;;;;;;71.32;25.38;;;-0.20;99.90;;;;;;5071860;28;20155;-73
2022/03/16 03:39:07;;;;;;;69.53;24.80;;;0.00;99.90;;;;;;5063079;28;20138;-73
2022/03/16 03:41:34;;;;;;;78.03;24.98;;;0.00;99.90;;;;;;5079646;28;20135;-73
2022/03/16 03:44:00;;;;;;;81.18;27.15;;;0.10;99.90;;;;;;5081267;28;20071;-73
2022/03/16 03:46:27;;;;;;;85.65;30.23;;;0.20;99.90;;;;;;5062592;28;20359;-73
2022/03/16 03:48:54;;;;;;;80.22;25.13;;;0.10;99.90;;;;;;5080251;28;20052;-73
2022/03/16 03:51:21;;;;;;;57.63;21.42;;;0.00;99.90;;;;;;5080447;28;20624;-73
2022/03/16 03:53:48;;;;;;;81.28;24.52;;;-0.10;99.90;;;;;;5061562;28;20558;-73
2022/03/16 03:56:15;;;;;;;87.43;27.85;;;0.00;99.90;;;;;;5079668;28;20054;-73
2022/03/16 03:58:42;;;;;;;73.50;25.67;;;0.10;99.90;;;;;;5080352;28;20586;-73
2022/03/16 04:01:08;;;;;;;63.17;21.95;;;0.00;99.90;;;;;;5075651;28;20068;-73
2022/03/16 04:03:35;;;;;;;69.80;25.23;;;-0.10;99.90;;;;;;5046228;28;20040;-73
2022/03/16 04:06:02;;;;;;;80.90;25.50;;;-0.20;99.90;;;;;;5068095;28;20064;-73
2022/03/16 04:08:29;;;;;;;89.40;28.73;;;-0.10;99.90;;;;;;5060131;28;20465;-73
2022/03/16 04:10:55;;;;;;;99.90;31.55;;;0.00;99.90;;;;;;5059128;28;20457;-73
2022/03/16 04:13:22;;;;;;;112.05;32.42;;;0.10;99.90;;;;;;5080461;28;20143;-73
2022/03/16 04:15:49;;;;;;;107.63;33.22;;;0.10;99.90;;;;;;5060401;28;20056;-73
2022/03/16 04:18:16;;;;;;;94.20;30.50;;;0.00;99.90;;;;;;5079317;28;20085;-73
2022/03/16 04:20:42;;;;;;;105.60;31.25;;;0.00;99.90;;;;;;5078330;28;20119;-74
2022/03/16 04:23:09;;;;;;;119.85;38.28;;;0.00;99.90;;;;;;5080401;28;20050;-74
2022/03/16 04:25:36;;;;;;;123.60;36.85;;;0.10;99.90;;;;;;5079243;28;20635;-74
2022/03/16 04:28:03;;;;;;;100.97;32.28;;;0.10;99.90;;;;;;5079160;28;20044;-74
2022/03/16 04:30:29;;;;;;;110.25;32.47;;;0.00;99.90;;;;;;5054343;28;20123;-74
2022/03/16 04:32:56;;;;;;;86.78;31.92;;;-0.10;99.90;;;;;;5065182;28;20328;-72
2022/03/16 04:35:23;;;;;;;75.57;25.27;;;-0.30;99.90;;;;;;5069551;28;20079;-72
2022/03/16 04:37:49;;;;;;;92.45;30.08;;;-0.30;99.90;;;;;;5048082;28;20047;-72
2022/03/16 04:40:16;;;;;;;77.25;25.92;;;-0.30;99.90;;;;;;5077678;28;20056;-74
2022/03/16 04:42:43;;;;;;;63.00;25.77;;;-0.40;99.90;;;;;;5079894;28;20435;-74
2022/03/16 04:45:10;;;;;;;94.85;31.60;;;-0.40;99.90;;;;;;5061186;28;20128;-74
2022/03/16 04:47:37;;;;;;;101.75;32.95;;;-0.40;99.90;;;;;;5076703;28;20039;-74
2022/03/16 04:50:05;;;;;;;108.05;34.60;;;-0.20;99.90;;;;;;5065230;28;20074;-74
2022/03/16 04:52:32;;;;;;;110.72;34.50;;;0.00;99.90;;;;;;5043871;28;20047;-74
2022/03/16 04:54:59;;;;;;;97.97;33.22;;;0.00;99.90;;;;;;5077949;28;20740;-74
2022/03/16 04:57:26;;;;;;;115.70;36.97;;;0.20;99.90;;;;;;5079464;28;20063;-74
2022/03/16 04:59:52;;;;;;;111.15;38.42;;;0.40;99.90;;;;;;5074522;28;20052;-73
2022/03/16 05:02:19;;;;;;;103.90;36.58;;;0.40;99.90;;;;;;5054374;28;20067;-73
2022/03/16 05:04:46;;;;;;;89.30;32.05;;;0.40;99.90;;;;;;5075319;28;20522;-73
2022/03/16 05:07:12;;;;;;;99.80;34.83;;;0.30;99.90;;;;;;5039292;28;20036;-73
2022/03/16 05:09:39;;;;;;;106.47;36.15;;;0.30;99.90;;;;;;5077213;28;20454;-73
2022/03/16 05:12:07;;;;;;;112.75;41.03;;;0.40;99.90;;;;;;5078609;28;20141;-73
2022/03/16 05:14:33;;;;;;;104.70;34.65;;;0.80;99.90;;;;;;5078645;28;20051;-73
2022/03/16 05:17:00;;;;;;;95.15;33.55;;;0.90;99.90;;;;;;5059884;28;20076;-73
2022/03/16 05:19:28;;;;;;;86.25;31.38;;;0.60;99.90;;;;;;5079212;28;20052;-73
2022/03/16 05:21:55;;;;;;;103.03;37.83;;;0.50;99.90;;;;;;5058752;28;20197;-73
2022/03/16 05:24:23;;;;;;;154.30;38.80;;;0.50;99.90;;;;;;5072282;28;20456;-73
2022/03/16 05:26:51;;;;;;;96.47;33.17;;;0.30;99.90;;;;;;5078343;28;20040;-73
2022/03/16 05:29:17;;;;;;;86.00;30.58;;;0.20;99.90;;;;;;5058724;28;20119;-73
2022/03/16 05:31:45;;;;;;;88.72;31.05;;;0.00;99.90;;;;;;5050620;28;20131;-73
2022/03/16 05:34:12;;;;;;;97.75;34.20;;;-0.20;99.90;;;;;;5040355;28;20046;-73
2022/03/16 05:36:38;;;;;;;87.82;35.30;;;-0.20;99.90;;;;;;5073999;28;20093;-74
2022/03/16 05:39:05;;;;;;;108.40;35.83;;;-0.20;99.90;;;;;;5033547;28;20083;-73
2022/03/16 05:41:32;;;;;;;88.18;32.53;;;-0.20;99.90;;;;;;5076136;28;20040;-73
2022/03/16 05:43:58;;;;;;;98.07;35.55;;;-0.20;99.90;;;;;;5064277;28;20121;-73
2022/03/16 05:46:25;;;;;;;91.05;36.33;;;-0.20;99.90;;;;;;5081470;28;20127;-72
2022/03/16 05:48:52;;;;;;;101.60;36.50;;;-0.20;99.90;;;;;;5036178;28;20445;-73
2022/03/16 05:51:19;;;;;;;95.43;35.10;;;-0.20;99.90;;;;;;5080058;28;20511;-73
2022/03/16 05:53:45;;;;;;;97.28;35.88;;;-0.30;99.90;;;;;;5082306;28;20080;-72
2022/03/16 05:56:15;;;;;;;101.38;37.42;;;-0.30;99.90;;;;;;5081203;28;20151;-72
2022/03/16 05:58:41;;;;;;;109.65;40.38;;;-0.30;99.90;;;;;;5058413;28;20044;-73
2022/03/16 06:01:08;;;;;;;136.32;44.67;;;-0.30;99.90;;;;;;5053519;28;20273;-72
2022/03/16 06:03:35;;;;;;;122.70;42.03;;;-0.10;99.90;;;;;;5079420;28;20036;-72
2022/03/16 06:06:04;;;;;;;119.47;43.35;;;0.10;99.90;;;;;;5051374;28;20131;-73
2022/03/16 06:08:31;;;;;;;133.85;48.00;;;0.00;99.90;;;;;;5069160;28;20048;-72
2022/03/16 06:10:58;;;;;;;110.93;42.65;;;0.30;99.90;;;;;;5072293;28;20044;-73
2022/03/16 06:13:25;;;;;;;99.80;37.75;;;0.40;99.90;;;;;;5081973;28;20558;-73
2022/03/16 06:15:52;;;;;;;91.07;36.28;;;0.80;99.90;;;;;;5080622;28;20553;-73
2022/03/16 06:18:19;;;;;;;91.65;38.08;;;1.30;99.90;;;;;;5080143;28;20105;-73
2022/03/16 06:20:46;;;;;;;83.50;36.22;;;2.20;99.90;;;;;;5078498;28;20040;-73
2022/03/16 06:23:12;;;;;;;91.13;35.65;;;2.80;99.90;;;;;;5080684;28;20566;-73
2022/03/16 06:25:40;;;;;;;85.28;32.95;;;3.40;99.90;;;;;;5081091;28;20067;-73
2022/03/16 06:28:07;;;;;;;72.80;30.50;;;3.70;99.90;;;;;;5062659;28;20054;-73
2022/03/16 06:30:34;;;;;;;71.18;30.85;;;3.80;99.90;;;;;;5072387;28;20101;-73
2022/03/16 06:33:00;;;;;;;57.72;27.67;;;4.10;99.90;;;;;;5051412;28;20106;-72
2022/03/16 06:35:27;;;;;;;55.17;27.25;;;4.50;99.90;;;;;;5073633;28;20078;-73
2022/03/16 06:37:54;;;;;;;59.80;29.38;;;4.60;99.90;;;;;;5054475;28;20085;-72
2022/03/16 06:40:21;;;;;;;58.70;33.28;;;4.50;99.90;;;;;;5067418;28;20056;-73
2022/03/16 06:42:56;;;;;;;57.75;36.00;;;4.00;99.90;;;;;;5075162;28;20040;-72
2022/03/16 06:45:25;;;;;;;60.38;32.65;;;3.50;99.90;;;;;;5071740;28;20040;-73
2022/03/16 06:47:55;;;;;;;64.97;33.92;;;3.60;99.90;;;;;;5076366;28;20447;-72
2022/03/16 06:50:22;;;;;;;54.17;31.05;;;3.90;99.90;;;;;;5058817;28;20832;-72
2022/03/16 06:52:49;;;;;;;60.58;32.85;;;4.40;99.90;;;;;;5060336;28;20537;-73
2022/03/16 06:55:16;;;;;;;55.58;32.75;;;4.60;99.90;;;;;;5060689;28;20091;-73
2022/03/16 06:57:42;;;;;;;65.85;35.38;;;4.80;99.90;;;;;;5063047;28;20036;-73
2022/03/16 07:00:13;;;;;;;66.00;33.92;;;4.80;99.90;;;;;;5057637;28;20076;-72
2022/03/16 07:02:59;;;;;;;62.40;36.80;;;4.80;99.90;;;;;;5046267;28;20141;-72
2022/03/16 07:05:28;;;;;;;59.97;33.80;;;4.80;99.90;;;;;;5051311;28;20111;-73
2022/03/16 07:08:00;;;;;;;56.42;35.33;;;4.90;99.90;;;;;;5065818;28;20183;-73
2022/03/16 07:10:28;;;;;;;60.90;34.80;;;4.90;99.90;;;;;;5061997;28;20381;-72
2022/03/16 07:12:56;;;;;;;51.35;29.65;;;5.00;99.90;;;;;;5080383;28;20379;-73
2022/03/16 07:15:23;;;;;;;59.33;29.27;;;5.20;99.90;;;;;;5077906;28;20634;-73
2022/03/16 07:17:50;;;;;;;49.83;28.15;;;5.40;99.90;;;;;;5081169;28;20127;-72
2022/03/16 07:20:17;;;;;;;45.33;23.45;;;5.60;99.90;;;;;;5061799;28;20135;-72
2022/03/16 07:22:44;;;;;;;49.55;28.23;;;5.80;99.90;;;;;;5060323;28;20300;-72
2022/03/16 07:25:21;;;;;;;53.38;29.10;;;5.90;99.90;;;;;;5061455;28;20055;-72
2022/03/16 07:27:49;;;;;;;49.15;28.38;;;6.10;99.90;;;;;;5062160;28;20059;-72
2022/03/16 07:30:16;;;;;;;49.90;28.70;;;6.30;99.90;;;;;;5071529;28;20465;-73
2022/03/16 07:32:44;;;;;;;47.83;30.30;;;6.40;99.90;;;;;;5064557;22;20060;-75
2022/03/16 07:35:11;;;;;;;49.47;30.70;;;6.50;99.90;;;;;;5003290;28;20045;-74
2022/03/16 07:37:39;;;;;;;46.30;30.70;;;6.50;99.90;;;;;;4993206;28;20037;-74
2022/03/16 07:40:06;;;;;;;46.60;31.67;;;6.60;99.90;;;;;;5035125;28;20067;-73
2022/03/16 07:42:35;;;;;;;49.45;32.00;;;6.60;99.90;;;;;;5040912;28;20045;-73
2022/03/16 07:45:02;;;;;;;52.63;33.35;;;6.60;99.90;;;;;;5023393;28;20044;-73
2022/03/16 07:47:29;;;;;;;48.53;31.50;;;6.60;99.90;;;;;;5022118;28;20049;-73
2022/03/16 07:50:06;;;;;;;45.67;30.40;;;6.60;99.90;;;;;;5020481;28;20072;-73
2022/03/16 07:52:33;;;;;;;45.63;30.80;;;6.50;99.90;;;;;;5003299;28;20053;-75
2022/03/16 07:54:59;;;;;;;46.28;32.53;;;6.40;99.90;;;;;;5020114;28;20369;-74
2022/03/16 07:57:26;;;;;;;44.88;31.23;;;6.50;99.90;;;;;;5020645;28;20132;-74
2022/03/16 07:59:54;;;;;;;45.00;30.98;;;6.50;99.90;;;;;;5017806;28;20057;-74
2022/03/16 08:02:22;;;;;;;43.92;29.38;;;6.60;99.90;;;;;;5030922;28;20371;-75
2022/03/16 08:04:48;;;;;;;43.67;30.20;;;6.60;99.90;;;;;;5012816;28;20144;-74
2022/03/16 08:07:15;;;;;;;44.92;29.83;;;6.60;99.90;;;;;;5012330;28;20083;-74
2022/03/16 08:09:42;;;;;;;47.88;32.05;;;6.70;99.90;;;;;;5005961;28;20037;-74
2022/03/16 08:12:09;;;;;;;45.47;30.98;;;6.70;99.90;;;;;;5005698;28;20121;-74
2022/03/16 08:14:36;;;;;;;41.58;30.42;;;6.60;99.90;;;;;;5022446;28;20588;-74
2022/03/16 08:17:03;;;;;;;46.28;32.47;;;6.60;99.90;;;;;;5022000;28;20049;-75
2022/03/16 08:19:30;;;;;;;46.10;32.85;;;6.50;99.90;;;;;;5040387;28;20111;-75
2022/03/16 08:21:57;;;;;;;45.28;30.10;;;6.60;99.90;;;;;;5039860;28;20049;-74
2022/03/16 08:24:24;;;;;;;40.88;28.13;;;6.60;99.90;;;;;;5022953;28;20516;-74
2022/03/16 08:27:11;;;;;;;47.70;31.15;;;6.60;99.90;;;;;;5006664;28;20060;-74
2022/03/16 08:29:38;;;;;;;43.17;31.40;;;6.90;99.90;;;;;;5036619;28;20049;-74
2022/03/16 08:32:05;;;;;;;50.08;32.17;;;6.90;99.90;;;;;;5010615;28;20390;-73
2022/03/16 08:34:33;;;;;;;40.50;29.63;;;7.00;99.90;;;;;;5008002;28;20395;-74
2022/03/16 08:37:00;;;;;;;47.97;31.05;;;7.10;99.90;;;;;;5017309;28;20606;-74
2022/03/16 08:39:28;;;;;;;47.20;31.98;;;7.40;99.90;;;;;;5022154;28;20075;-74
2022/03/16 08:41:55;;;;;;;40.78;32.60;;;7.40;99.90;;;;;;5022054;28;20045;-74
2022/03/16 08:44:23;;;;;;;46.20;35.22;;;7.50;99.90;;;;;;5006940;28;20049;-74
2022/03/16 08:46:50;;;;;;;46.58;34.97;;;7.60;99.90;;;;;;5022113;28;20108;-74
2022/03/16 08:49:18;;;;;;;48.30;32.45;;;7.70;99.90;;;;;;5007061;28;20056;-74
2022/03/16 08:51:45;;;;;;;42.35;32.00;;;7.70;99.90;;;;;;5040247;28;20596;-73
2022/03/16 08:54:11;;;;;;;48.30;32.97;;;7.80;99.90;;;;;;5041437;28;20128;-75
2022/03/16 08:56:38;;;;;;;46.20;33.42;;;7.80;99.90;;;;;;5022080;28;20056;-74
2022/03/16 08:59:06;;;;;;;51.00;34.22;;;8.00;99.90;;;;;;5005543;28;20045;-74
2022/03/16 09:01:35;;;;;;;43.83;34.70;;;8.00;99.90;;;;;;5003487;28;20103;-74
2022/03/16 09:04:02;;;;;;;48.33;37.00;;;8.20;99.90;;;;;;5022023;28;20502;-74
2022/03/16 09:06:32;;;;;;;46.00;34.60;;;8.30;99.90;;;;;;5020721;28;20060;-75
2022/03/16 09:08:58;;;;;;;44.05;33.70;;;8.80;99.90;;;;;;5030358;28;20091;-75
2022/03/16 09:11:28;;;;;;;46.92;35.70;;;9.10;99.90;;;;;;5026391;28;20068;-74
2022/03/16 09:13:55;;;;;;;46.20;37.78;;;9.20;99.90;;;;;;5010851;28;20568;-74
2022/03/16 09:16:22;;;;;;;45.72;37.25;;;9.40;99.90;;;;;;5017414;28;20146;-75
2022/03/16 09:18:49;;;;;;;42.85;37.05;;;9.40;99.90;;;;;;5035427;28;20037;-75
2022/03/16 09:21:16;;;;;;;49.00;36.38;;;9.40;99.90;;;;;;5010731;28;20319;-74
2022/03/16 09:23:43;;;;;;;43.65;36.67;;;9.30;99.90;;;;;;5045662;28;20053;-75
2022/03/16 09:26:10;;;;;;;40.70;36.25;;;9.50;99.90;;;;;;5026156;28;20049;-75
2022/03/16 09:28:37;;;;;;;44.58;36.08;;;9.50;99.90;;;;;;5043947;28;20045;-74
2022/03/16 09:31:04;;;;;;;41.45;35.40;;;9.30;99.90;;;;;;5034647;28;20427;-75
2022/03/16 09:33:30;;;;;;;43.90;36.58;;;9.20;99.90;;;;;;4991886;28;20133;-75
2022/03/16 09:35:57;;;;;;;43.17;36.33;;;9.30;99.90;;;;;;5013766;28;20148;-75
2022/03/16 09:38:24;;;;;;;40.40;35.13;;;9.40;99.90;;;;;;5041367;28;20471;-75
2022/03/16 09:40:57;;;;;;;43.83;37.35;;;9.60;99.90;;;;;;5023928;28;20447;-75
2022/03/16 09:43:24;;;;;;;42.35;36.25;;;9.70;99.90;;;;;;5025650;28;20049;-75
2022/03/16 09:45:55;;;;;;;42.50;36.70;;;9.90;99.90;;;;;;5025481;28;20052;-76
2022/03/16 09:48:24;;;;;;;43.60;35.65;;;9.80;99.90;;;;;;5036451;28;20685;-75
2022/03/16 09:50:53;;;;;;;40.13;35.38;;;9.50;99.90;;;;;;5004526;28;20293;-76
2022/03/16 09:53:22;;;;;;;37.45;32.97;;;9.40;99.90;;;;;;5043705;28;20048;-75
2022/03/16 09:55:52;;;;;;;39.65;31.48;;;9.30;99.90;;;;;;5024552;28;20045;-75
2022/03/16 09:58:20;;;;;;;42.55;36.80;;;8.80;99.90;;;;;;5025059;28;20041;-75
2022/03/16 10:00:47;;;;;;;40.63;33.65;;;8.70;99.90;;;;;;5012529;28;20091;-76
2022/03/16 10:03:16;;;;;;;37.35;33.42;;;8.90;99.90;;;;;;5037573;28;20048;-75
2022/03/16 10:05:46;;;;;;;34.60;31.00;;;9.00;99.90;;;;;;5014270;28;20065;-75
2022/03/16 10:08:14;;;;;;;33.40;29.88;;;9.10;99.90;;;;;;4992417;28;20191;-74
2022/03/16 10:13:26;;;;;;;;;;;9.60;99.90;;;;;;5016781;28;20529;-75
2022/03/16 10:16:09;;;;;;;36.17;32.58;;;9.80;99.90;;;;;;5036472;28;20125;-77
2022/03/16 10:18:37;;;;;;;36.80;33.03;;;10.10;99.90;;;;;;5058828;28;20051;-77
2022/03/16 10:21:07;;;;;;;37.00;32.92;;;10.30;99.90;;;;;;5059187;28;20068;-77
2022/03/16 10:23:35;;;;;;;37.25;33.47;;;10.60;99.90;;;;;;5058887;28;20049;-77
2022/03/16 10:26:03;;;;;;;36.97;32.75;;;10.50;99.90;;;;;;5057642;28;20057;-77
2022/03/16 10:28:32;;;;;;;37.92;33.03;;;10.50;99.90;;;;;;5057636;28;20232;-79
2022/03/16 10:31:05;;;;;;;36.53;33.13;;;10.50;99.90;;;;;;5025046;28;20053;-79
2022/03/16 10:33:36;;;;;;;39.60;35.42;;;10.50;99.90;;;;;;5051011;28;20263;-76
2022/03/16 10:36:07;;;;;;;38.35;34.65;;;10.30;99.90;;;;;;5045791;28;20057;-76
2022/03/16 10:38:41;;;;;;;41.50;34.83;;;10.50;99.90;;;;;;5053488;28;20049;-76
2022/03/16 10:41:14;;;;;;;38.20;34.42;;;10.70;99.90;;;;;;5031813;28;20417;-76
2022/03/16 10:46:35;;;;;;;40.60;36.55;;;10.80;99.90;;;;;;5037001;28;20037;-76
2022/03/16 10:49:03;;;;;;;39.22;35.35;;;11.10;99.90;;;;;;5038363;28;20052;-77
2022/03/16 10:51:31;;;;;;;41.53;37.03;;;11.20;99.90;;;;;;5036388;28;20050;-75
2022/03/16 10:54:18;;;;;;;39.75;35.83;;;11.50;99.90;;;;;;5036649;28;20506;-77
2022/03/16 10:56:47;;;;;;;42.95;38.53;;;11.50;99.90;;;;;;5036685;28;20107;-78
2022/03/16 10:59:14;;;;;;;43.03;38.60;;;11.50;99.90;;;;;;5045962;28;20662;-78
2022/03/16 11:01:42;;;;;;;42.30;36.75;;;11.60;99.90;;;;;;5050404;28;20044;-79
2022/03/16 11:04:09;;;;;;;42.80;38.28;;;11.40;99.90;;;;;;5033061;28;20072;-78
2022/03/16 11:06:38;;;;;;;43.85;39.42;;;11.00;99.90;;;;;;5041929;28;20049;-78
2022/03/16 11:09:08;;;;;;;43.92;39.60;;;11.10;99.90;;;;;;5051019;28;20041;-78
2022/03/16 11:14:22;;;;;;;40.95;36.90;;;11.30;99.90;;;;;;5051170;28;20045;-78
2022/03/16 11:16:50;;;;;;;46.42;40.22;;;11.40;99.90;;;;;;5050686;28;20534;-78
2022/03/16 11:19:18;;;;;;;42.60;37.97;;;11.50;99.90;;;;;;5051172;28;20067;-78
2022/03/16 11:22:17;;;;;;;42.97;38.67;;;11.60;99.90;;;;;;5050529;28;20045;-76
2022/03/16 11:24:48;;;;;;;44.35;39.85;;;11.80;99.90;;;;;;5054639;28;20052;-76
2022/03/16 11:27:46;;;;;;;44.30;39.55;;;11.70;99.90;;;;;;5036768;28;20238;-77
2022/03/16 11:30:29;;;;;;;43.10;39.10;;;11.90;99.90;;;;;;5048098;28;20048;-76
2022/03/16 11:33:01;;;;;;;46.05;41.45;;;11.70;99.90;;;;;;5031095;28;20053;-77
2022/03/16 11:35:32;;;;;;;43.13;38.85;;;11.70;99.90;;;;;;5019569;28;21014;-78
2022/03/16 11:38:09;;;;;;;45.15;40.42;;;11.80;99.90;;;;;;5020547;28;20267;-76
2022/03/16 11:40:39;;;;;;;45.55;40.65;;;12.00;99.90;;;;;;5050366;28;20108;-77
2022/03/16 11:43:08;;;;;;;46.10;41.17;;;11.90;99.90;;;;;;5049621;28;20197;-79
2022/03/16 11:45:38;;;;;;;45.50;40.90;;;12.00;99.90;;;;;;5048843;28;20045;-79
2022/03/16 11:48:34;;;;;;;42.25;37.83;;;12.00;99.90;;;;;;5044239;28;20084;-78
2022/03/16 11:51:13;;;;;;;40.53;36.20;;;11.70;99.90;;;;;;5041434;28;20266;-78
2022/03/16 11:53:51;;;;;;;43.45;38.83;;;11.60;99.90;;;;;;5048458;28;20056;-78
2022/03/16 11:56:26;;;;;;;44.08;38.83;;;11.60;99.90;;;;;;5048846;28;20458;-78
2022/03/16 11:58:54;;;;;;;;;;;11.70;99.90;;;;;;5050480;28;20061;-76
2022/03/16 12:01:27;;;;;;;43.05;38.53;;;12.00;99.90;;;;;;5027914;28;20003;-78
2022/03/16 12:04:12;;;;;;;43.30;38.90;;;12.00;99.90;;;;;;5036822;28;20053;-78
2022/03/16 12:07:02;;;;;;;42.97;38.50;;;11.90;99.90;;;;;;5046340;28;20053;-78
2022/03/16 12:09:40;;;;;;;45.22;40.45;;;11.80;99.90;;;;;;5035657;28;20072;-77
2022/03/16 12:15:08;;;;;;;44.30;39.58;;;11.60;99.90;;;;;;5032856;28;20058;-78
2022/03/16 12:17:37;;;;;;;42.73;38.60;;;11.80;99.90;;;;;;5032357;28;20246;-76
2022/03/16 12:20:25;;;;;;;43.58;38.97;;;12.20;99.90;;;;;;5062388;28;20102;-78
2022/03/16 12:22:56;;;;;;;47.30;42.22;;;12.10;99.90;;;;;;5065803;28;20036;-78
2022/03/16 12:25:26;;;;;;;44.08;39.55;;;12.40;99.90;;;;;;5062625;28;20048;-76
2022/03/16 12:31:01;;;;;;;43.47;38.88;;;12.30;99.90;;;;;;5032310;28;20050;-78
2022/03/16 12:33:48;;;;;;;44.00;38.45;;;12.10;99.90;;;;;;5033684;28;20692;-79
2022/03/16 12:36:18;;;;;;;43.63;38.85;;;12.20;99.90;;;;;;5026216;28;20342;-78
2022/03/16 12:38:50;;;;;;;41.38;37.08;;;12.30;99.90;;;;;;5030212;28;20254;-76
2022/03/16 12:44:08;;;;;;;43.20;38.78;;;12.30;99.90;;;;;;5044842;28;20032;-76
2022/03/16 12:46:48;;;;;;;40.65;36.58;;;12.40;99.90;;;;;;5063465;28;20110;-76
2022/03/16 12:49:21;;;;;;;44.55;39.95;;;12.70;99.90;;;;;;5047439;28;20424;-75
2022/03/16 12:51:52;;;;;;;44.70;39.92;;;12.80;99.90;;;;;;5022014;28;20236;-80
2022/03/16 12:54:22;;;;;;;44.72;40.22;;;12.70;99.90;;;;;;5046430;28;20053;-77
2022/03/16 12:56:51;;;;;;;43.28;39.08;;;12.80;99.90;;;;;;5051838;28;20049;-77